createdAt,value
2019-01-15T00:02:20.619Z,101453.49
2019-01-15T00:04:49.054Z,101451.29
2019-01-15T00:07:17.496Z,101454.71
2019-01-15T00:09:45.947Z,101444.38
2019-01-15T00:12:14.498Z,101444.32
2019-01-15T00:14:42.975Z,101438.70
2019-01-15T00:17:11.510Z,101440.83
2019-01-15T00:19:40.003Z,101442.91
2019-01-15T00:22:08.628Z,101439.42
2019-01-15T00:24:37.038Z,101438.51
2019-01-15T00:27:05.492Z,101443.58
2019-01-15T00:29:33.952Z,101436.26
2019-01-15T00:32:02.455Z,101436.66
2019-01-15T00:34:30.944Z,101440.13
2019-01-15T00:36:59.620Z,101437.55
2019-01-15T00:39:28.056Z,101440.08
2019-01-15T00:41:56.510Z,101442.21
2019-01-15T00:44:24.934Z,101448.27
2019-01-15T00:46:53.345Z,101440.02
2019-01-15T00:49:21.808Z,101447.72
2019-01-15T00:51:50.242Z,101447.69
2019-01-15T00:54:18.681Z,101452.41
2019-01-15T00:56:47.167Z,101447.24
2019-01-15T00:59:15.611Z,101444.15
2019-01-15T01:01:44.261Z,101441.97
2019-01-15T01:04:12.700Z,101443.23
2019-01-15T01:06:41.130Z,101448.41
2019-01-15T01:09:11.141Z,101444.02
2019-01-15T01:11:39.995Z,101449.59
2019-01-15T01:14:08.578Z,101444.41
2019-01-15T01:16:37.010Z,101443.50
2019-01-15T01:19:05.571Z,101440.94
2019-01-15T01:21:34.070Z,101436.58
2019-01-15T01:24:02.491Z,101442.59
2019-01-15T01:26:31.001Z,101446.92
2019-01-15T01:28:59.492Z,101450.80
2019-01-15T01:31:28.011Z,101460.70
2019-01-15T01:33:56.414Z,101458.95
2019-01-15T01:36:24.867Z,101449.91
2019-01-15T01:38:53.289Z,101439.06
2019-01-15T01:41:21.746Z,101444.73
2019-01-15T01:43:50.333Z,101445.64
2019-01-15T01:46:18.843Z,101454.41
2019-01-15T01:48:47.275Z,101459.15
2019-01-15T01:51:16.199Z,101460.56
2019-01-15T01:53:47.420Z,101464.97
2019-01-15T01:56:15.867Z,101464.25
2019-01-15T01:58:44.303Z,101469.48
2019-01-15T02:01:12.813Z,101467.41
2019-01-15T02:03:41.256Z,101474.44
2019-01-15T02:06:09.756Z,101467.64
2019-01-15T02:08:38.275Z,101472.90
2019-01-15T02:11:06.732Z,101476.78
2019-01-15T02:13:35.156Z,101479.36
2019-01-15T02:16:03.655Z,101462.67
2019-01-15T02:18:32.103Z,101466.66
2019-01-15T02:21:00.589Z,101464.54
2019-01-15T02:23:29.035Z,101469.81
2019-01-15T02:25:57.474Z,101469.83
2019-01-15T02:28:25.915Z,101457.34
2019-01-15T02:30:54.890Z,101457.73
2019-01-15T02:33:25.039Z,101460.77
2019-01-15T02:35:53.458Z,101462.08
2019-01-15T02:38:21.940Z,101452.18
2019-01-15T02:40:50.363Z,101447.11
2019-01-15T02:43:18.837Z,101443.77
2019-01-15T02:45:47.256Z,101443.03
2019-01-15T02:48:15.707Z,101439.66
2019-01-15T02:50:44.142Z,101444.88
2019-01-15T02:53:12.644Z,101451.80
2019-01-15T02:55:41.068Z,101447.03
2019-01-15T02:58:09.567Z,101437.62
2019-01-15T03:00:38.041Z,101439.88
2019-01-15T03:03:06.715Z,101420.52
2019-01-15T03:05:35.127Z,101411.82
2019-01-15T03:08:03.727Z,101408.38
2019-01-15T03:10:32.207Z,101414.78
2019-01-15T03:13:00.798Z,101407.81
2019-01-15T03:15:29.210Z,101399.62
2019-01-15T03:17:57.633Z,101411.25
2019-01-15T03:20:26.144Z,101424.57
2019-01-15T03:22:54.598Z,101416.31
2019-01-15T03:25:23.115Z,101414.13
2019-01-15T03:27:51.614Z,101405.46
2019-01-15T03:30:22.245Z,101403.78
2019-01-15T03:32:50.792Z,101398.27
2019-01-15T03:35:19.395Z,101394.04
2019-01-15T03:37:47.814Z,101395.83
2019-01-15T03:40:21.994Z,101401.91
2019-01-15T03:42:50.544Z,101396.69
2019-01-15T03:45:19.014Z,101400.12
2019-01-15T03:47:47.420Z,101407.09
2019-01-15T03:50:16.092Z,101403.33
2019-01-15T03:52:44.574Z,101404.71
2019-01-15T03:55:14.743Z,101406.84
2019-01-15T03:57:43.803Z,101404.16
2019-01-15T04:00:15.335Z,101400.63
2019-01-15T04:02:44.500Z,101391.11
2019-01-15T04:05:13.764Z,101374.23
2019-01-15T04:07:43.136Z,101382.80
2019-01-15T04:10:12.091Z,101387.52
2019-01-15T04:12:40.603Z,101378.86
2019-01-15T04:15:13.289Z,101382.29
2019-01-15T04:17:42.163Z,101390.44
2019-01-15T04:20:17.659Z,101383.97
2019-01-15T04:22:46.602Z,101386.56
2019-01-15T04:25:15.890Z,101381.79
2019-01-15T04:27:44.492Z,101390.44
2019-01-15T04:30:15.788Z,101381.39
2019-01-15T04:32:44.366Z,101377.91
2019-01-15T04:35:13.027Z,101369.25
2019-01-15T04:37:41.484Z,101374.42
2019-01-15T04:40:13.157Z,101361.03
2019-01-15T04:42:41.612Z,101352.87
2019-01-15T04:45:13.055Z,101350.23
2019-01-15T04:47:41.563Z,101352.42
2019-01-15T04:50:10.995Z,101345.95
2019-01-15T04:52:41.277Z,101333.03
2019-01-15T04:55:11.507Z,101333.58
2019-01-15T04:57:40.025Z,101323.28
2019-01-15T05:00:14.383Z,101320.26
2019-01-15T05:02:43.128Z,101323.78
2019-01-15T05:05:13.684Z,101323.34
2019-01-15T05:07:42.192Z,101322.00
2019-01-15T05:10:15.381Z,101318.56
2019-01-15T05:12:43.829Z,101315.13
2019-01-15T05:15:14.479Z,101322.44
2019-01-15T05:17:43.004Z,101322.84
2019-01-15T05:20:17.016Z,101313.34
2019-01-15T05:22:45.513Z,101318.11
2019-01-15T05:25:19.151Z,101321.59
2019-01-15T05:27:47.616Z,101323.45
2019-01-15T05:30:23.959Z,101322.65
2019-01-15T05:32:52.712Z,101324.00
2019-01-15T05:35:21.234Z,101325.34
2019-01-15T05:37:49.665Z,101328.94
2019-01-15T05:40:18.358Z,101329.88
2019-01-15T05:42:46.845Z,101323.05
2019-01-15T05:45:18.963Z,101318.38
2019-01-15T05:47:48.261Z,101316.73
2019-01-15T05:50:18.417Z,101308.58
2019-01-15T05:52:46.842Z,101306.92
2019-01-15T05:55:15.463Z,101306.12
2019-01-15T05:57:43.909Z,101300.10
2019-01-15T06:00:17.048Z,101303.55
2019-01-15T06:02:45.433Z,101302.29
2019-01-15T06:05:14.519Z,101292.38
2019-01-15T06:07:42.997Z,101293.73
2019-01-15T06:10:13.840Z,101294.66
2019-01-15T06:12:42.423Z,101278.33
2019-01-15T06:15:13.339Z,101290.83
2019-01-15T06:17:41.774Z,101294.31
2019-01-15T06:20:13.281Z,101281.37
2019-01-15T06:22:41.796Z,101281.45
2019-01-15T06:25:11.056Z,101283.68
2019-01-15T06:27:39.565Z,101270.34
2019-01-15T06:30:13.731Z,101273.01
2019-01-15T06:32:42.355Z,101270.02
2019-01-15T06:35:11.104Z,101262.70
2019-01-15T06:37:39.616Z,101262.25
2019-01-15T06:40:20.405Z,101265.77
2019-01-15T06:42:49.187Z,101268.36
2019-01-15T06:45:23.490Z,101267.44
2019-01-15T06:47:52.006Z,101266.14
2019-01-15T06:50:20.575Z,101267.52
2019-01-15T06:52:49.120Z,101276.17
2019-01-15T06:55:19.986Z,101277.95
2019-01-15T06:57:48.499Z,101280.55
2019-01-15T07:00:28.570Z,101275.41
2019-01-15T07:02:57.557Z,101268.94
2019-01-15T07:05:26.069Z,101269.79
2019-01-15T07:07:54.592Z,101271.13
2019-01-15T07:10:31.767Z,101271.16
2019-01-15T07:13:00.334Z,101273.31
2019-01-15T07:15:28.821Z,101280.69
2019-01-15T07:17:57.335Z,101270.77
2019-01-15T07:20:26.307Z,101265.62
2019-01-15T07:22:54.844Z,101269.14
2019-01-15T07:25:26.245Z,101276.55
2019-01-15T07:27:54.685Z,101281.30
2019-01-15T07:30:26.176Z,101289.95
2019-01-15T07:32:55.418Z,101294.34
2019-01-15T07:35:24.050Z,101303.41
2019-01-15T07:37:52.610Z,101303.45
2019-01-15T07:40:21.130Z,101312.56
2019-01-15T07:42:49.552Z,101310.90
2019-01-15T07:45:18.437Z,101306.12
2019-01-15T07:47:46.927Z,101293.61
2019-01-15T07:50:20.369Z,101296.20
2019-01-15T07:52:49.635Z,101297.50
2019-01-15T07:55:19.997Z,101295.80
2019-01-15T07:57:48.418Z,101295.42
2019-01-15T08:00:26.632Z,101286.80
2019-01-15T08:02:55.503Z,101278.63
2019-01-15T08:05:28.405Z,101281.63
2019-01-15T08:07:57.071Z,101267.33
2019-01-15T08:10:25.598Z,101271.62
2019-01-15T08:12:54.153Z,101266.84
2019-01-15T08:15:27.738Z,101275.47
2019-01-15T08:17:56.311Z,101263.03
2019-01-15T08:20:24.883Z,101261.77
2019-01-15T08:22:53.463Z,101269.62
2019-01-15T08:25:21.958Z,101274.00
2019-01-15T08:27:50.509Z,101269.77
2019-01-15T08:30:27.474Z,101265.48
2019-01-15T08:32:56.074Z,101271.11
2019-01-15T08:35:24.842Z,101273.70
2019-01-15T08:37:53.286Z,101276.33
2019-01-15T08:40:21.842Z,101269.03
2019-01-15T08:42:50.268Z,101273.38
2019-01-15T08:45:19.332Z,101264.33
2019-01-15T08:47:50.262Z,101259.18
2019-01-15T08:50:21.236Z,101258.33
2019-01-15T08:52:50.112Z,101265.77
2019-01-15T08:55:18.542Z,101269.28
2019-01-15T08:57:47.005Z,101258.98
2019-01-15T09:00:15.860Z,101257.31
2019-01-15T09:02:44.378Z,101263.42
2019-01-15T09:05:13.155Z,101259.56
2019-01-15T09:07:41.583Z,101258.33
2019-01-15T09:10:15.295Z,101265.30
2019-01-15T09:12:44.046Z,101268.36
2019-01-15T09:15:20.979Z,101263.61
2019-01-15T09:17:49.494Z,101262.83
2019-01-15T09:20:19.907Z,101262.45
2019-01-15T09:22:48.472Z,101266.84
2019-01-15T09:25:17.065Z,101256.49
2019-01-15T09:27:45.607Z,101262.16
2019-01-15T09:30:16.385Z,101269.12
2019-01-15T09:32:44.967Z,101263.98
2019-01-15T09:35:13.645Z,101268.86
2019-01-15T09:37:42.612Z,101255.05
2019-01-15T09:40:13.967Z,101262.02
2019-01-15T09:42:42.460Z,101258.17
2019-01-15T09:45:14.123Z,101263.39
2019-01-15T09:47:44.357Z,101264.31
2019-01-15T09:50:13.433Z,101266.95
2019-01-15T09:52:42.374Z,101250.53
2019-01-15T09:55:10.889Z,101263.14
2019-01-15T09:57:39.404Z,101254.52
2019-01-15T10:00:16.503Z,101256.78
2019-01-15T10:02:44.946Z,101262.04
2019-01-15T10:05:13.514Z,101263.83
2019-01-15T10:07:41.991Z,101250.83
2019-01-15T10:10:13.320Z,101257.33
2019-01-15T10:12:41.913Z,101252.60
2019-01-15T10:15:21.759Z,101263.89
2019-01-15T10:17:50.387Z,101260.05
2019-01-15T10:20:19.459Z,101252.29
2019-01-15T10:22:48.961Z,101248.46
2019-01-15T10:25:27.993Z,101255.00
2019-01-15T10:27:57.634Z,101250.30
2019-01-15T10:30:39.882Z,101243.39
2019-01-15T10:33:14.266Z,101242.12
2019-01-15T10:35:54.694Z,101242.59
2019-01-15T10:38:28.935Z,101245.66
2019-01-15T10:40:58.094Z,101231.78
2019-01-15T10:43:27.470Z,101238.28
2019-01-15T10:45:56.069Z,101240.88
2019-01-15T10:48:24.849Z,101226.16
2019-01-15T10:50:53.526Z,101227.91
2019-01-15T10:53:22.152Z,101229.65
2019-01-15T10:55:50.604Z,101233.59
2019-01-15T10:58:19.081Z,101232.32
2019-01-15T11:00:47.598Z,101231.47
2019-01-15T11:03:16.024Z,101233.67
2019-01-15T11:05:44.790Z,101226.76
2019-01-15T11:08:13.279Z,101232.84
2019-01-15T11:10:41.769Z,101212.45
2019-01-15T11:13:10.335Z,101205.96
2019-01-15T11:15:43.095Z,101205.52
2019-01-15T11:18:09.123Z,101197.29
2019-01-15T11:20:37.718Z,101198.19
2019-01-15T11:23:06.295Z,101204.69
2019-01-15T11:25:34.820Z,101196.03
2019-01-15T11:28:04.914Z,101196.06
2019-01-15T11:30:33.415Z,101196.49
2019-01-15T11:33:01.841Z,101200.84
2019-01-15T11:35:30.566Z,101197.39
2019-01-15T11:37:58.983Z,101190.45
2019-01-15T11:40:27.417Z,101187.84
2019-01-15T11:42:55.911Z,101190.88
2019-01-15T11:45:24.604Z,101178.31
2019-01-15T11:47:53.363Z,101180.91
2019-01-15T11:50:23.383Z,101182.23
2019-01-15T11:52:51.972Z,101174.87
2019-01-15T11:55:21.365Z,101180.06
2019-01-15T11:57:51.015Z,101188.77
2019-01-15T12:00:38.630Z,101176.20
2019-01-15T12:03:11.812Z,101182.78
2019-01-15T12:05:41.996Z,101178.88
2019-01-15T12:08:28.159Z,101174.52
2019-01-15T12:11:00.662Z,101172.34
2019-01-15T12:13:42.464Z,101170.62
2019-01-15T12:16:12.545Z,101168.87
2019-01-15T12:18:51.364Z,101176.22
2019-01-15T12:21:21.480Z,101172.31
2019-01-15T12:24:07.475Z,101161.50
2019-01-15T12:26:37.699Z,101168.87
2019-01-15T12:29:24.389Z,101163.70
2019-01-15T12:31:54.487Z,101161.55
2019-01-15T12:34:40.771Z,101167.19
2019-01-15T12:37:26.844Z,101165.02
2019-01-15T12:40:06.853Z,101154.17
2019-01-15T12:42:53.200Z,101156.77
2019-01-15T12:45:32.734Z,101148.96
2019-01-15T12:48:19.559Z,101154.16
2019-01-15T12:50:49.850Z,101158.49
2019-01-15T12:53:36.587Z,101155.02
2019-01-15T12:56:19.289Z,101154.59
2019-01-15T12:58:49.383Z,101151.13
2019-01-15T13:01:35.913Z,101143.75
2019-01-15T13:04:21.195Z,101138.52
2019-01-15T13:06:51.333Z,101143.75
2019-01-15T13:09:24.069Z,101132.88
2019-01-15T13:11:57.093Z,101127.66
2019-01-15T13:14:42.024Z,101125.49
2019-01-15T13:17:27.301Z,101135.48
2019-01-15T13:19:57.437Z,101130.27
2019-01-15T13:22:28.452Z,101128.09
2019-01-15T13:25:16.659Z,101128.46
2019-01-15T13:27:49.411Z,101125.01
2019-01-15T13:30:19.646Z,101128.05
2019-01-15T13:32:55.773Z,101127.61
2019-01-15T13:35:31.922Z,101119.35
2019-01-15T13:38:01.986Z,101121.06
2019-01-15T13:40:35.094Z,101117.19
2019-01-15T13:43:23.707Z,101110.69
2019-01-15T13:46:00.705Z,101107.63
2019-01-15T13:48:28.801Z,101122.41
2019-01-15T13:51:07.880Z,101118.50
2019-01-15T13:53:41.332Z,101110.67
2019-01-15T13:56:27.683Z,101106.77
2019-01-15T13:59:03.671Z,101118.93
2019-01-15T14:01:48.915Z,101119.78
2019-01-15T14:04:27.714Z,101115.01
2019-01-15T14:07:14.520Z,101109.37
2019-01-15T14:09:59.749Z,101117.20
2019-01-15T14:12:41.608Z,101119.34
2019-01-15T14:15:11.992Z,101116.30
2019-01-15T14:17:44.568Z,101114.58
2019-01-15T14:20:31.324Z,101111.09
2019-01-15T14:23:16.377Z,101110.66
2019-01-15T14:25:49.214Z,101113.27
2019-01-15T14:28:31.297Z,101105.88
2019-01-15T14:31:01.443Z,101100.66
2019-01-15T14:33:34.567Z,101104.56
2019-01-15T14:36:16.646Z,101101.55
2019-01-15T14:38:46.863Z,101094.19
2019-01-15T14:41:16.922Z,101103.28
2019-01-15T14:43:53.123Z,101088.11
2019-01-15T14:46:39.741Z,101089.39
2019-01-15T14:49:12.932Z,101083.75
2019-01-15T14:51:59.799Z,101090.68
2019-01-15T14:54:38.848Z,101089.39
2019-01-15T14:57:17.992Z,101088.09
2019-01-15T14:59:48.098Z,101091.55
2019-01-15T15:02:33.518Z,101086.77
2019-01-15T15:05:19.936Z,101080.70
2019-01-15T15:07:59.007Z,101082.85
2019-01-15T15:10:29.087Z,101080.69
2019-01-15T15:12:59.241Z,101087.19
2019-01-15T15:15:29.494Z,101079.37
2019-01-15T15:18:11.629Z,101075.46
2019-01-15T15:20:51.049Z,101076.78
2019-01-15T15:23:21.189Z,101078.50
2019-01-15T15:26:00.022Z,101087.61
2019-01-15T15:28:36.098Z,101090.21
2019-01-15T15:31:10.951Z,101087.19
2019-01-15T15:33:45.263Z,101082.42
2019-01-15T15:36:30.681Z,101080.23
2019-01-15T15:39:15.735Z,101085.01
2019-01-15T15:41:45.811Z,101084.16
2019-01-15T15:44:31.293Z,101075.46
2019-01-15T15:47:17.805Z,101081.53
2019-01-15T15:50:03.945Z,101077.22
2019-01-15T15:52:46.585Z,101073.31
2019-01-15T15:55:35.032Z,101069.39
2019-01-15T15:58:14.664Z,101065.91
2019-01-15T16:00:47.556Z,101066.34
2019-01-15T16:03:36.193Z,101065.48
2019-01-15T16:06:09.727Z,101061.58
2019-01-15T16:08:39.929Z,101066.78
2019-01-15T16:11:15.726Z,101068.52
2019-01-15T16:13:54.979Z,101078.50
2019-01-15T16:16:40.072Z,101067.63
2019-01-15T16:19:10.164Z,101062.84
2019-01-15T16:21:46.169Z,101058.52
2019-01-15T16:24:32.984Z,101061.11
2019-01-15T16:27:18.168Z,101068.48
2019-01-15T16:29:48.310Z,101065.91
2019-01-15T16:32:18.365Z,101065.02
2019-01-15T16:34:51.321Z,101065.88
2019-01-15T16:37:27.399Z,101069.79
2019-01-15T16:40:09.277Z,101062.84
2019-01-15T16:42:48.391Z,101060.25
2019-01-15T16:45:30.778Z,101055.05
2019-01-15T16:48:12.638Z,101056.77
2019-01-15T16:50:49.149Z,101053.30
2019-01-15T16:53:22.163Z,101058.49
2019-01-15T16:55:58.680Z,101062.86
2019-01-15T16:58:34.104Z,101065.91
2019-01-15T17:01:20.667Z,101062.00
2019-01-15T17:03:50.881Z,101069.79
2019-01-15T17:06:27.075Z,101061.56
2019-01-15T17:09:03.242Z,101068.94
2019-01-15T17:11:51.217Z,101052.44
2019-01-15T17:14:24.421Z,101058.09
2019-01-15T17:16:54.465Z,101055.47
2019-01-15T17:19:27.249Z,101057.21
2019-01-15T17:22:13.484Z,101060.68
2019-01-15T17:24:49.406Z,101054.63
2019-01-15T17:27:19.581Z,101061.56
2019-01-15T17:30:08.052Z,101056.77
2019-01-15T17:32:38.150Z,101056.36
2019-01-15T17:35:11.617Z,101051.57
2019-01-15T17:37:50.723Z,101059.38
2019-01-15T17:40:37.046Z,101057.23
2019-01-15T17:43:13.412Z,101061.11
2019-01-15T17:45:46.473Z,101058.09
2019-01-15T17:48:17.389Z,101068.07
2019-01-15T17:51:03.718Z,101058.94
2019-01-15T17:53:39.622Z,101066.34
2019-01-15T17:56:12.851Z,101064.15
2019-01-15T17:58:55.168Z,101056.36
2019-01-15T18:01:37.562Z,101057.21
2019-01-15T18:04:23.529Z,101058.08
2019-01-15T18:07:10.011Z,101058.52
2019-01-15T18:09:40.123Z,101051.61
2019-01-15T18:12:19.002Z,101047.69
2019-01-15T18:14:49.167Z,101051.59
2019-01-15T18:17:19.572Z,101046.80
2019-01-15T18:20:04.640Z,101048.12
2019-01-15T18:22:34.775Z,101042.49
2019-01-15T18:25:07.904Z,101038.58
2019-01-15T18:27:49.669Z,101040.73
2019-01-15T18:30:35.906Z,101048.13
2019-01-15T18:33:23.513Z,101042.93
2019-01-15T18:35:56.656Z,101041.17
2019-01-15T18:38:26.872Z,101032.92
2019-01-15T18:41:02.812Z,101036.41
2019-01-15T18:43:50.883Z,101032.94
2019-01-15T18:46:24.147Z,101028.15
2019-01-15T18:48:57.741Z,101030.32
2019-01-15T18:51:27.906Z,101035.09
2019-01-15T18:54:14.249Z,101032.94
2019-01-15T18:56:47.201Z,101034.23
2019-01-15T18:59:33.699Z,101025.98
2019-01-15T19:02:20.159Z,101025.55
2019-01-15T19:04:50.280Z,101027.73
2019-01-15T19:07:23.137Z,101027.72
2019-01-15T19:10:09.709Z,101020.78
2019-01-15T19:12:46.032Z,101018.16
2019-01-15T19:15:25.668Z,101008.62
2019-01-15T19:18:12.047Z,101006.02
2019-01-15T19:20:58.624Z,101006.45
2019-01-15T19:23:28.874Z,101006.45
2019-01-15T19:26:17.497Z,101015.12
2019-01-15T19:29:04.092Z,101004.72
2019-01-15T19:31:49.023Z,101013.39
2019-01-15T19:34:37.459Z,101004.72
2019-01-15T19:37:19.872Z,101003.86
2019-01-15T19:39:53.071Z,101008.60
2019-01-15T19:42:23.138Z,101018.16
2019-01-15T19:44:53.414Z,101014.67
2019-01-15T19:47:38.329Z,101008.60
2019-01-15T19:50:23.078Z,101012.50
2019-01-15T19:53:09.734Z,101006.47
2019-01-15T19:55:39.943Z,101008.20
2019-01-15T19:58:10.309Z,101011.66
2019-01-15T20:00:46.306Z,101016.01
2019-01-15T20:03:32.665Z,101018.62
2019-01-15T20:06:03.603Z,101019.06
2019-01-15T20:08:39.529Z,101022.49
2019-01-15T20:11:26.069Z,101025.97
2019-01-15T20:13:59.372Z,101032.92
2019-01-15T20:16:29.511Z,101029.02
2019-01-15T20:19:02.446Z,101032.47
2019-01-15T20:21:53.137Z,101037.67
2019-01-15T20:24:28.699Z,101034.20
2019-01-15T20:27:01.456Z,101026.40
2019-01-15T20:29:40.330Z,101034.66
2019-01-15T20:32:16.626Z,101030.75
2019-01-15T20:34:55.435Z,101020.77
2019-01-15T20:37:28.625Z,101024.68
2019-01-15T20:40:07.670Z,101021.64
2019-01-15T20:42:37.893Z,101027.28
2019-01-15T20:45:15.560Z,101020.77
2019-01-15T20:48:03.678Z,101026.84
2019-01-15T20:50:40.115Z,101025.55
2019-01-15T20:53:10.286Z,101030.30
2019-01-15T20:55:56.926Z,101022.52
2019-01-15T20:58:35.867Z,101025.12
2019-01-15T21:01:08.840Z,101015.16
2019-01-15T21:03:44.969Z,101024.68
2019-01-15T21:06:18.214Z,101030.32
2019-01-15T21:08:57.689Z,101023.40
2019-01-15T21:11:44.239Z,101023.40
2019-01-15T21:14:20.479Z,101024.68
2019-01-15T21:17:07.093Z,101025.12
2019-01-15T21:19:37.210Z,101019.91
2019-01-15T21:22:25.516Z,101016.45
2019-01-15T21:25:01.954Z,101018.19
2019-01-15T21:27:44.351Z,101018.61
2019-01-15T21:30:21.404Z,101001.26
2019-01-15T21:33:03.910Z,101014.27
2019-01-15T21:35:37.016Z,101005.16
2019-01-15T21:38:22.415Z,101008.63
2019-01-15T21:40:58.612Z,101007.33
2019-01-15T21:43:28.805Z,100997.80
2019-01-15T21:46:04.961Z,100996.92
2019-01-15T21:48:51.572Z,100992.16
2019-01-15T21:51:27.829Z,100990.84
2019-01-15T21:54:07.206Z,100985.63
2019-01-15T21:56:53.525Z,100980.02
2019-01-15T21:59:32.666Z,100984.80
2019-01-15T22:02:20.758Z,100981.73
2019-01-15T22:05:02.476Z,100984.33
2019-01-15T22:07:41.548Z,100985.22
2019-01-15T22:10:14.584Z,100981.31
2019-01-15T22:12:53.624Z,100979.13
2019-01-15T22:15:23.827Z,100984.35
2019-01-15T22:17:54.075Z,100973.47
2019-01-15T22:20:39.561Z,100973.91
2019-01-15T22:23:12.706Z,100976.95
2019-01-15T22:25:59.187Z,100970.44
2019-01-15T22:28:34.986Z,100966.53
2019-01-15T22:31:08.085Z,100970.04
2019-01-15T22:33:43.913Z,100963.07
2019-01-15T22:36:19.851Z,100958.73
2019-01-15T22:38:50.026Z,100955.28
2019-01-15T22:41:32.015Z,100956.56
2019-01-15T22:44:10.831Z,100944.42
2019-01-15T22:46:57.387Z,100937.92
2019-01-15T22:49:30.506Z,100935.34
2019-01-15T22:52:16.815Z,100935.34
2019-01-15T22:54:46.909Z,100940.53
2019-01-15T22:57:26.059Z,100938.80
2019-01-15T23:00:12.379Z,100947.05
2019-01-15T23:02:45.478Z,100938.35
2019-01-15T23:05:24.241Z,100937.05
2019-01-15T23:07:54.430Z,100920.16
2019-01-15T23:10:33.873Z,100933.60
2019-01-15T23:13:09.804Z,100933.16
2019-01-15T23:15:39.862Z,100928.37
2019-01-15T23:18:10.111Z,100925.79
2019-01-15T23:20:43.110Z,100930.11
2019-01-15T23:23:21.902Z,100926.20
2019-01-15T23:25:54.896Z,100925.34
2019-01-15T23:28:28.124Z,100920.14
2019-01-15T23:31:15.064Z,100931.41
2019-01-15T23:33:57.304Z,100917.55
2019-01-15T23:36:30.589Z,100926.21
2019-01-15T23:39:00.761Z,100922.33
2019-01-15T23:41:37.362Z,100918.84
2019-01-15T23:44:23.780Z,100923.60
2019-01-15T23:46:59.622Z,100908.00
2019-01-15T23:49:38.952Z,100914.94
2019-01-15T23:52:25.762Z,100912.77
2019-01-15T23:55:08.090Z,100907.13
2019-01-15T23:57:47.179Z,100916.67
